createdAt,value
2017-07-29T00:01:28.315Z,18.10
2017-07-29T00:03:57.381Z,18.09
2017-07-29T00:06:26.443Z,18.06
2017-07-29T00:08:55.492Z,18.05
2017-07-29T00:11:24.562Z,18.07
2017-07-29T00:13:53.608Z,18.07
2017-07-29T00:16:22.671Z,18.08
2017-07-29T00:18:51.734Z,18.09
2017-07-29T00:21:20.799Z,18.08
2017-07-29T00:23:49.880Z,18.10
2017-07-29T00:26:18.920Z,18.09
2017-07-29T00:28:47.985Z,18.14
2017-07-29T00:31:17.040Z,18.13
2017-07-29T00:33:46.118Z,18.13
2017-07-29T00:36:15.212Z,18.13
2017-07-29T00:38:44.289Z,18.16
2017-07-29T00:41:13.336Z,18.18
2017-07-29T00:43:42.375Z,18.16
2017-07-29T00:46:11.444Z,18.18
2017-07-29T00:48:40.503Z,18.21
2017-07-29T00:51:09.606Z,18.19
2017-07-29T00:53:38.637Z,18.17
2017-07-29T00:56:07.729Z,18.19
2017-07-29T00:58:36.774Z,18.21
2017-07-29T01:01:05.868Z,18.19
2017-07-29T01:03:34.903Z,18.21
2017-07-29T01:06:04.004Z,18.21
2017-07-29T01:08:33.105Z,18.23
2017-07-29T01:11:02.162Z,18.25
2017-07-29T01:13:31.214Z,18.27
2017-07-29T01:16:00.267Z,18.24
2017-07-29T01:18:29.323Z,18.28
2017-07-29T01:20:58.392Z,18.29
2017-07-29T01:23:27.432Z,18.24
2017-07-29T01:25:56.514Z,18.24
2017-07-29T01:28:25.548Z,18.27
2017-07-29T01:30:54.637Z,18.30
2017-07-29T01:33:23.685Z,18.28
2017-07-29T01:35:52.728Z,18.27
2017-07-29T01:38:22.031Z,18.30
2017-07-29T01:40:51.063Z,18.30
2017-07-29T01:43:20.108Z,18.27
2017-07-29T01:45:49.172Z,18.25
2017-07-29T01:48:18.242Z,18.33
2017-07-29T01:50:47.290Z,18.34
2017-07-29T01:53:16.364Z,18.35
2017-07-29T01:55:45.460Z,18.33
2017-07-29T01:58:14.523Z,18.38
2017-07-29T02:00:43.595Z,18.41
2017-07-29T02:03:12.679Z,18.43
2017-07-29T02:05:41.750Z,18.47
2017-07-29T02:08:10.840Z,18.48
2017-07-29T02:10:39.887Z,18.56
2017-07-29T02:13:08.959Z,18.60
2017-07-29T02:15:38.003Z,18.63
2017-07-29T02:18:07.040Z,18.64
2017-07-29T02:20:36.112Z,18.70
2017-07-29T02:23:05.187Z,18.69
2017-07-29T02:25:34.276Z,18.72
2017-07-29T02:28:03.353Z,18.74
2017-07-29T02:30:32.414Z,18.77
2017-07-29T02:33:01.480Z,18.78
2017-07-29T02:35:30.592Z,18.84
2017-07-29T02:37:59.647Z,18.86
2017-07-29T02:40:28.688Z,18.93
2017-07-29T02:42:57.763Z,18.98
2017-07-29T02:45:26.821Z,19.01
2017-07-29T02:47:55.873Z,19.00
2017-07-29T02:50:24.949Z,19.01
2017-07-29T02:52:53.980Z,19.03
2017-07-29T02:55:23.025Z,19.08
2017-07-29T02:57:52.112Z,19.10
2017-07-29T03:00:21.165Z,19.12
2017-07-29T03:02:50.223Z,19.13
2017-07-29T03:05:19.281Z,19.15
2017-07-29T03:07:48.354Z,19.18
2017-07-29T03:10:17.434Z,19.23
2017-07-29T03:12:46.524Z,19.26
2017-07-29T03:15:15.577Z,19.29
2017-07-29T03:17:44.649Z,19.27
2017-07-29T03:20:13.744Z,19.33
2017-07-29T03:22:42.807Z,19.33
2017-07-29T03:25:11.863Z,19.35
2017-07-29T03:27:40.908Z,19.28
2017-07-29T03:30:10.033Z,19.32
2017-07-29T03:32:39.100Z,19.35
2017-07-29T03:35:08.984Z,19.38
2017-07-29T03:37:38.055Z,19.37
2017-07-29T03:40:07.323Z,19.36
2017-07-29T03:42:36.373Z,19.37
2017-07-29T03:45:05.435Z,19.40
2017-07-29T03:47:34.487Z,19.42
2017-07-29T03:50:03.590Z,19.41
2017-07-29T03:52:32.643Z,19.43
2017-07-29T03:55:01.705Z,19.45
2017-07-29T03:57:30.751Z,19.45
2017-07-29T03:59:59.799Z,19.47
2017-07-29T04:02:28.853Z,19.47
2017-07-29T04:04:57.904Z,19.51
2017-07-29T04:07:26.954Z,19.53
2017-07-29T04:09:56.025Z,19.52
2017-07-29T04:12:25.092Z,19.53
2017-07-29T04:14:54.135Z,19.54
2017-07-29T04:17:23.215Z,19.56
2017-07-29T04:19:52.254Z,19.56
2017-07-29T04:22:21.319Z,19.53
2017-07-29T04:24:50.504Z,19.57
2017-07-29T04:27:19.560Z,19.59
2017-07-29T04:29:48.644Z,19.58
2017-07-29T04:32:17.703Z,19.63
2017-07-29T04:34:46.751Z,19.61
2017-07-29T04:37:15.859Z,19.61
2017-07-29T04:39:44.916Z,19.62
2017-07-29T04:42:13.979Z,19.63
2017-07-29T04:44:43.035Z,19.66
2017-07-29T04:47:12.145Z,19.67
2017-07-29T04:49:41.166Z,19.68
2017-07-29T04:52:10.226Z,19.72
2017-07-29T04:54:39.272Z,19.71
2017-07-29T04:57:08.366Z,19.75
2017-07-29T04:59:37.399Z,19.76
2017-07-29T05:02:06.657Z,19.78
2017-07-29T05:04:35.682Z,19.80
2017-07-29T05:07:04.743Z,19.82
2017-07-29T05:09:33.804Z,19.83
2017-07-29T05:12:02.871Z,19.87
2017-07-29T05:14:31.925Z,19.91
2017-07-29T05:17:00.996Z,19.96
2017-07-29T05:19:30.055Z,20.02
2017-07-29T05:21:59.108Z,20.06
2017-07-29T05:24:28.173Z,20.08
2017-07-29T05:26:57.227Z,20.08
2017-07-29T05:29:26.288Z,20.07
2017-07-29T05:31:55.344Z,20.07
2017-07-29T05:34:24.403Z,20.04
2017-07-29T05:36:53.472Z,20.08
2017-07-29T05:39:22.545Z,20.12
2017-07-29T05:41:51.597Z,20.19
2017-07-29T05:44:20.635Z,20.31
2017-07-29T05:46:49.804Z,20.41
2017-07-29T05:49:18.831Z,20.46
2017-07-29T05:51:47.888Z,20.55
2017-07-29T05:54:16.963Z,20.62
2017-07-29T05:56:46.095Z,20.65
2017-07-29T05:59:15.180Z,20.62
2017-07-29T06:01:44.455Z,20.62
2017-07-29T06:04:13.700Z,20.66
2017-07-29T06:06:42.808Z,20.71
2017-07-29T06:09:11.891Z,20.76
2017-07-29T06:11:40.978Z,20.81
2017-07-29T06:14:10.020Z,20.82
2017-07-29T06:16:39.087Z,20.83
2017-07-29T06:19:08.144Z,20.85
2017-07-29T06:21:37.212Z,20.89
2017-07-29T06:24:06.287Z,21.01
2017-07-29T06:26:35.365Z,21.08
2017-07-29T06:29:04.413Z,21.20
2017-07-29T06:31:33.467Z,21.27
2017-07-29T06:34:02.527Z,21.30
2017-07-29T06:36:31.680Z,21.31
2017-07-29T06:39:00.764Z,21.33
2017-07-29T06:41:29.820Z,21.35
2017-07-29T06:43:58.905Z,21.48
2017-07-29T06:46:27.990Z,21.62
2017-07-29T06:48:57.028Z,21.69
2017-07-29T06:51:26.132Z,21.70
2017-07-29T06:53:55.203Z,21.67
2017-07-29T06:56:24.251Z,21.66
2017-07-29T06:58:53.313Z,21.66
2017-07-29T07:01:22.375Z,21.65
2017-07-29T07:03:51.464Z,21.65
2017-07-29T07:06:20.490Z,21.65
2017-07-29T07:08:49.583Z,21.65
2017-07-29T07:11:18.634Z,21.60
2017-07-29T07:13:47.669Z,21.59
2017-07-29T07:16:16.745Z,21.60
2017-07-29T07:18:45.789Z,21.58
2017-07-29T07:21:14.835Z,21.66
2017-07-29T07:23:43.883Z,21.75
2017-07-29T07:26:12.949Z,21.74
2017-07-29T07:28:42.024Z,21.72
2017-07-29T07:31:11.073Z,21.68
2017-07-29T07:33:40.144Z,21.70
2017-07-29T07:36:09.241Z,21.78
2017-07-29T07:38:38.277Z,21.77
2017-07-29T07:41:07.387Z,21.75
2017-07-29T07:43:36.432Z,21.70
2017-07-29T07:46:05.490Z,21.70
2017-07-29T07:48:34.544Z,21.69
2017-07-29T07:51:03.853Z,21.66
2017-07-29T07:53:32.914Z,21.66
2017-07-29T07:56:01.944Z,21.64
2017-07-29T07:58:31.033Z,21.60
2017-07-29T08:01:00.125Z,21.58
2017-07-29T08:03:29.171Z,21.56
2017-07-29T08:05:58.235Z,21.61
2017-07-29T08:08:27.298Z,21.67
2017-07-29T08:10:56.363Z,21.77
2017-07-29T08:13:25.450Z,21.82
2017-07-29T08:15:54.515Z,21.85
2017-07-29T08:18:23.767Z,21.89
2017-07-29T08:20:52.834Z,21.91
2017-07-29T08:23:21.914Z,22.01
2017-07-29T08:25:50.995Z,22.07
2017-07-29T08:28:20.071Z,22.13
2017-07-29T08:30:49.134Z,22.25
2017-07-29T08:33:18.172Z,22.33
2017-07-29T08:35:47.270Z,22.40
2017-07-29T08:38:16.311Z,22.45
2017-07-29T08:40:45.404Z,22.62
2017-07-29T08:43:14.464Z,22.77
2017-07-29T08:45:43.534Z,22.78
2017-07-29T08:48:12.597Z,22.82
2017-07-29T08:50:41.684Z,22.82
2017-07-29T08:53:10.720Z,22.83
2017-07-29T08:55:39.772Z,22.76
2017-07-29T08:58:08.881Z,22.79
2017-07-29T09:00:37.881Z,22.88
2017-07-29T09:03:06.969Z,22.92
2017-07-29T09:05:36.012Z,22.99
2017-07-29T09:08:05.090Z,23.13
2017-07-29T09:10:34.144Z,23.36
2017-07-29T09:13:03.241Z,23.67
2017-07-29T09:15:32.272Z,23.83
2017-07-29T09:18:01.348Z,23.91
2017-07-29T09:20:30.371Z,24.05
2017-07-29T09:22:59.472Z,24.18
2017-07-29T09:25:28.523Z,24.37
2017-07-29T09:27:57.563Z,24.49
2017-07-29T09:30:26.668Z,24.50
2017-07-29T09:32:55.695Z,24.54
2017-07-29T09:35:24.808Z,24.64
2017-07-29T09:37:53.902Z,24.71
2017-07-29T09:40:22.952Z,24.72
2017-07-29T09:42:52.006Z,24.74
2017-07-29T09:45:21.122Z,24.79
2017-07-29T09:47:50.163Z,24.78
2017-07-29T09:50:19.199Z,24.83
2017-07-29T09:52:48.239Z,24.98
2017-07-29T09:55:17.348Z,24.97
2017-07-29T09:57:46.452Z,25.00
2017-07-29T10:00:15.499Z,25.04
2017-07-29T10:02:44.572Z,25.06
2017-07-29T10:05:13.685Z,25.00
2017-07-29T10:07:42.778Z,24.88
2017-07-29T10:10:11.874Z,24.66
2017-07-29T10:12:40.915Z,24.51
2017-07-29T10:15:09.981Z,24.38
2017-07-29T10:17:39.029Z,24.20
2017-07-29T10:20:08.094Z,24.07
2017-07-29T10:22:37.188Z,24.03
2017-07-29T10:25:06.209Z,23.96
2017-07-29T10:27:35.288Z,23.82
2017-07-29T10:30:04.345Z,23.76
2017-07-29T10:32:33.407Z,23.77
2017-07-29T10:35:02.492Z,23.76
2017-07-29T10:37:31.548Z,23.79
2017-07-29T10:40:00.594Z,23.76
2017-07-29T10:42:29.645Z,23.71
2017-07-29T10:44:58.753Z,23.72
2017-07-29T10:47:27.799Z,23.71
2017-07-29T10:49:57.292Z,23.72
2017-07-29T10:52:26.359Z,23.76
2017-07-29T10:54:55.433Z,23.84
2017-07-29T10:57:24.505Z,24.02
2017-07-29T10:59:53.539Z,24.20
2017-07-29T11:02:22.621Z,24.32
2017-07-29T11:04:51.698Z,24.45
2017-07-29T11:07:20.795Z,24.54
2017-07-29T11:09:49.816Z,24.54
2017-07-29T11:12:18.884Z,24.57
2017-07-29T11:14:47.939Z,24.60
2017-07-29T11:17:16.995Z,24.54
2017-07-29T11:19:46.064Z,24.43
2017-07-29T11:22:15.108Z,24.34
2017-07-29T11:24:44.187Z,24.29
2017-07-29T11:27:13.269Z,24.25
2017-07-29T11:29:42.370Z,24.29
2017-07-29T11:32:11.426Z,24.36
2017-07-29T11:34:40.499Z,24.41
2017-07-29T11:37:09.547Z,24.43
2017-07-29T11:39:38.614Z,24.35
2017-07-29T11:42:07.671Z,24.43
2017-07-29T11:44:36.723Z,24.46
2017-07-29T11:47:05.808Z,24.53
2017-07-29T11:49:34.856Z,24.60
2017-07-29T11:52:03.926Z,24.63
2017-07-29T11:54:33.002Z,24.63
2017-07-29T11:57:02.046Z,24.69
2017-07-29T11:59:31.110Z,24.79
2017-07-29T12:02:00.173Z,24.89
2017-07-29T12:04:29.258Z,24.93
2017-07-29T12:06:58.315Z,24.93
2017-07-29T12:09:27.372Z,24.90
2017-07-29T12:11:56.445Z,24.81
2017-07-29T12:14:25.480Z,24.72
2017-07-29T12:16:54.529Z,24.77
2017-07-29T12:19:23.584Z,25.00
2017-07-29T12:21:52.640Z,25.21
2017-07-29T12:24:21.740Z,25.37
2017-07-29T12:26:50.757Z,25.56
2017-07-29T12:29:19.840Z,25.74
2017-07-29T12:31:48.895Z,25.88
2017-07-29T12:34:17.966Z,25.87
2017-07-29T12:36:47.052Z,25.82
2017-07-29T12:39:16.104Z,25.80
2017-07-29T12:41:45.182Z,25.86
2017-07-29T12:44:14.252Z,25.85
2017-07-29T12:46:43.347Z,25.89
2017-07-29T12:49:12.436Z,25.88
2017-07-29T12:51:41.475Z,25.91
2017-07-29T12:54:10.525Z,25.93
2017-07-29T12:56:39.616Z,26.00
2017-07-29T12:59:08.681Z,26.23
2017-07-29T13:01:37.739Z,26.43
2017-07-29T13:04:06.827Z,26.56
2017-07-29T13:06:35.879Z,26.73
2017-07-29T13:09:04.948Z,26.81
2017-07-29T13:11:35.083Z,26.88
2017-07-29T13:14:04.144Z,26.99
2017-07-29T13:16:33.207Z,27.10
2017-07-29T13:19:02.279Z,27.18
2017-07-29T13:21:31.331Z,27.28
2017-07-29T13:24:00.411Z,27.24
2017-07-29T13:26:29.449Z,27.04
2017-07-29T13:28:58.515Z,26.90
2017-07-29T13:31:27.574Z,26.81
2017-07-29T13:33:56.633Z,26.73
2017-07-29T13:36:25.711Z,26.67
2017-07-29T13:38:54.775Z,26.63
2017-07-29T13:41:23.856Z,26.67
2017-07-29T13:43:52.913Z,26.67
2017-07-29T13:46:22.033Z,26.70
2017-07-29T13:48:51.116Z,26.70
2017-07-29T13:51:20.165Z,26.72
2017-07-29T13:53:49.238Z,26.80
2017-07-29T13:56:18.294Z,26.87
2017-07-29T13:58:47.367Z,26.84
2017-07-29T14:01:16.407Z,26.74
2017-07-29T14:03:45.474Z,26.60
2017-07-29T14:06:14.555Z,26.49
2017-07-29T14:08:43.586Z,26.37
2017-07-29T14:11:12.661Z,26.29
2017-07-29T14:13:41.725Z,26.27
2017-07-29T14:16:10.836Z,26.08
2017-07-29T14:18:39.912Z,25.99
2017-07-29T14:21:09.012Z,25.95
2017-07-29T14:23:38.083Z,25.98
2017-07-29T14:26:07.173Z,25.99
2017-07-29T14:28:36.207Z,25.98
2017-07-29T14:31:05.266Z,25.88
2017-07-29T14:33:34.295Z,25.72
2017-07-29T14:36:03.658Z,25.66
2017-07-29T14:38:32.691Z,25.61
2017-07-29T14:41:01.784Z,25.60
2017-07-29T14:43:30.829Z,25.62
2017-07-29T14:45:59.879Z,25.63
2017-07-29T14:48:35.572Z,25.73
2017-07-29T14:51:04.680Z,25.81
2017-07-29T14:53:33.720Z,25.80
2017-07-29T14:56:02.790Z,25.90
2017-07-29T14:58:31.852Z,25.92
2017-07-29T15:01:00.929Z,26.00
2017-07-29T15:03:29.989Z,26.12
2017-07-29T15:05:59.060Z,26.26
2017-07-29T15:08:28.111Z,26.36
2017-07-29T15:10:57.195Z,26.51
2017-07-29T15:13:26.264Z,26.52
2017-07-29T15:15:55.319Z,26.50
2017-07-29T15:18:24.395Z,26.54
2017-07-29T15:20:53.511Z,26.61
2017-07-29T15:23:22.573Z,26.57
2017-07-29T15:25:51.629Z,26.53
2017-07-29T15:28:20.851Z,26.55
2017-07-29T15:30:50.824Z,26.54
2017-07-29T15:33:19.880Z,26.49
2017-07-29T15:35:48.938Z,26.44
2017-07-29T15:38:18.023Z,26.47
2017-07-29T15:40:47.051Z,26.45
2017-07-29T15:43:16.135Z,26.44
2017-07-29T15:45:45.188Z,26.44
2017-07-29T15:48:14.240Z,26.47
2017-07-29T15:50:43.320Z,26.50
2017-07-29T15:53:12.368Z,26.57
2017-07-29T15:55:41.417Z,26.61
2017-07-29T15:58:10.515Z,26.59
2017-07-29T16:00:39.567Z,26.45
2017-07-29T16:03:08.630Z,26.40
2017-07-29T16:05:38.499Z,26.36
2017-07-29T16:08:07.603Z,26.32
2017-07-29T16:10:36.656Z,26.33
2017-07-29T16:13:05.844Z,26.29
2017-07-29T16:15:34.916Z,26.30
2017-07-29T16:18:04.118Z,26.30
2017-07-29T16:20:33.200Z,26.34
2017-07-29T16:23:02.248Z,26.33
2017-07-29T16:25:31.385Z,26.34
2017-07-29T16:28:00.495Z,26.35
2017-07-29T16:30:29.558Z,26.36
2017-07-29T16:32:58.673Z,26.40
2017-07-29T16:35:27.732Z,26.50
2017-07-29T16:37:56.776Z,26.52
2017-07-29T16:40:25.844Z,26.55
2017-07-29T16:42:54.911Z,26.60
2017-07-29T16:45:24.003Z,26.68
2017-07-29T16:47:53.076Z,26.73
2017-07-29T16:50:22.146Z,26.69
2017-07-29T16:52:51.179Z,26.68
2017-07-29T16:55:20.244Z,26.63
2017-07-29T16:57:49.332Z,26.55
2017-07-29T17:00:18.413Z,26.54
2017-07-29T17:02:47.465Z,26.57
2017-07-29T17:05:16.530Z,26.56
2017-07-29T17:07:45.608Z,26.61
2017-07-29T17:10:14.674Z,26.66
2017-07-29T17:12:43.740Z,26.62
2017-07-29T17:15:12.803Z,26.61
2017-07-29T17:17:41.846Z,26.59
2017-07-29T17:20:10.904Z,26.59
2017-07-29T17:22:39.971Z,26.58
2017-07-29T17:25:09.017Z,26.58
2017-07-29T17:27:38.118Z,26.64
2017-07-29T17:30:07.188Z,26.65
2017-07-29T17:32:36.492Z,26.58
2017-07-29T17:35:05.559Z,26.54
2017-07-29T17:37:34.608Z,26.50
2017-07-29T17:40:03.910Z,26.51
2017-07-29T17:42:32.949Z,26.44
2017-07-29T17:45:02.037Z,26.42
2017-07-29T17:47:31.083Z,26.41
2017-07-29T17:50:00.129Z,26.34
2017-07-29T17:52:29.160Z,26.27
2017-07-29T17:54:58.232Z,26.25
2017-07-29T17:57:27.295Z,26.25
2017-07-29T17:59:56.355Z,26.22
2017-07-29T18:02:25.462Z,26.19
2017-07-29T18:04:54.520Z,26.17
2017-07-29T18:07:23.584Z,26.15
2017-07-29T18:09:52.621Z,26.15
2017-07-29T18:12:21.671Z,26.12
2017-07-29T18:14:50.762Z,26.10
2017-07-29T18:17:19.824Z,26.09
2017-07-29T18:19:48.910Z,26.09
2017-07-29T18:22:17.955Z,26.11
2017-07-29T18:24:47.011Z,26.09
2017-07-29T18:27:16.174Z,26.09
2017-07-29T18:29:45.216Z,26.05
2017-07-29T18:32:14.291Z,26.05
2017-07-29T18:34:43.503Z,26.06
2017-07-29T18:37:12.587Z,26.08
2017-07-29T18:39:41.632Z,26.09
2017-07-29T18:42:10.736Z,26.06
2017-07-29T18:44:39.766Z,26.05
2017-07-29T18:47:08.838Z,26.00
2017-07-29T18:49:37.887Z,25.90
2017-07-29T18:52:06.965Z,25.84
2017-07-29T18:54:36.022Z,25.79
2017-07-29T18:57:05.070Z,25.70
2017-07-29T18:59:34.120Z,25.66
2017-07-29T19:02:03.168Z,25.58
2017-07-29T19:04:32.221Z,25.50
2017-07-29T19:07:01.275Z,25.43
2017-07-29T19:09:30.365Z,25.41
2017-07-29T19:11:59.400Z,25.39
2017-07-29T19:14:28.474Z,25.35
2017-07-29T19:16:57.555Z,25.29
2017-07-29T19:19:26.672Z,25.23
2017-07-29T19:21:55.753Z,25.20
2017-07-29T19:24:24.772Z,25.12
2017-07-29T19:26:53.820Z,25.06
2017-07-29T19:29:22.889Z,24.99
2017-07-29T19:31:51.944Z,24.93
2017-07-29T19:34:21.016Z,24.85
2017-07-29T19:36:50.052Z,24.72
2017-07-29T19:39:19.129Z,24.68
2017-07-29T19:41:48.180Z,24.64
2017-07-29T19:44:17.223Z,24.61
2017-07-29T19:46:46.298Z,24.58
2017-07-29T19:49:15.358Z,24.54
2017-07-29T19:51:44.426Z,24.44
2017-07-29T19:54:13.526Z,24.41
2017-07-29T19:56:42.584Z,24.37
2017-07-29T19:59:11.683Z,24.33
2017-07-29T20:01:40.840Z,24.29
2017-07-29T20:04:09.893Z,24.28
2017-07-29T20:06:38.955Z,24.21
2017-07-29T20:09:08.025Z,24.17
2017-07-29T20:11:37.179Z,24.11
2017-07-29T20:14:06.255Z,24.07
2017-07-29T20:16:35.324Z,24.04
2017-07-29T20:19:04.417Z,24.02
2017-07-29T20:21:33.527Z,24.02
2017-07-29T20:24:02.597Z,24.02
2017-07-29T20:26:31.629Z,24.02
2017-07-29T20:29:00.728Z,24.00
2017-07-29T20:31:29.775Z,24.00
2017-07-29T20:33:58.844Z,24.00
2017-07-29T20:36:27.897Z,24.00
2017-07-29T20:38:56.941Z,24.04
2017-07-29T20:41:26.006Z,24.05
2017-07-29T20:43:55.073Z,24.08
2017-07-29T20:46:24.114Z,24.08
2017-07-29T20:48:53.175Z,24.09
2017-07-29T20:51:22.256Z,24.08
2017-07-29T20:53:51.317Z,24.07
2017-07-29T20:56:20.392Z,24.07
2017-07-29T20:58:49.425Z,24.05
2017-07-29T21:01:18.464Z,24.07
2017-07-29T21:03:47.516Z,24.08
2017-07-29T21:06:16.787Z,24.10
2017-07-29T21:08:45.823Z,24.13
2017-07-29T21:11:14.901Z,24.13
2017-07-29T21:13:43.954Z,24.13
2017-07-29T21:16:13.036Z,24.11
2017-07-29T21:18:42.061Z,24.11
2017-07-29T21:21:11.116Z,24.06
2017-07-29T21:23:40.204Z,24.09
2017-07-29T21:26:10.913Z,24.11
2017-07-29T21:28:39.944Z,24.12
2017-07-29T21:31:09.015Z,24.18
2017-07-29T21:33:38.084Z,24.23
2017-07-29T21:36:07.153Z,24.28
2017-07-29T21:38:36.185Z,24.29
2017-07-29T21:41:05.264Z,24.30
2017-07-29T21:43:34.283Z,24.37
2017-07-29T21:46:03.353Z,24.39
2017-07-29T21:48:32.425Z,24.41
2017-07-29T21:51:01.503Z,24.44
2017-07-29T21:53:30.564Z,24.44
2017-07-29T21:55:59.600Z,24.48
2017-07-29T21:58:28.657Z,24.49
2017-07-29T22:00:57.715Z,24.49
2017-07-29T22:03:26.762Z,24.52
2017-07-29T22:05:55.819Z,24.51
2017-07-29T22:08:24.864Z,24.52
2017-07-29T22:10:53.936Z,24.58
2017-07-29T22:13:22.972Z,24.60
2017-07-29T22:15:52.024Z,24.61
2017-07-29T22:18:21.093Z,24.65
2017-07-29T22:20:50.322Z,24.68
2017-07-29T22:23:19.403Z,24.68
2017-07-29T22:25:48.432Z,24.73
2017-07-29T22:28:17.467Z,24.77
2017-07-29T22:30:46.520Z,24.78
2017-07-29T22:33:15.586Z,24.73
2017-07-29T22:35:44.652Z,24.65
2017-07-29T22:38:13.714Z,24.57
2017-07-29T22:40:42.755Z,24.53
2017-07-29T22:43:11.865Z,24.48
2017-07-29T22:45:40.889Z,24.42
2017-07-29T22:48:10.201Z,24.37
2017-07-29T22:50:39.248Z,24.34
2017-07-29T22:53:08.328Z,24.26
2017-07-29T22:55:37.390Z,24.21
2017-07-29T22:58:06.435Z,24.13
2017-07-29T23:00:35.511Z,24.05
2017-07-29T23:03:04.612Z,24.01
2017-07-29T23:05:33.664Z,23.97
2017-07-29T23:08:02.813Z,23.93
2017-07-29T23:10:31.881Z,23.92
2017-07-29T23:13:00.928Z,23.85
2017-07-29T23:15:30.794Z,23.85
2017-07-29T23:17:59.878Z,23.85
2017-07-29T23:20:28.924Z,23.85
2017-07-29T23:22:57.976Z,23.86
2017-07-29T23:25:27.244Z,23.88
2017-07-29T23:27:56.319Z,23.92
2017-07-29T23:30:25.353Z,23.95
2017-07-29T23:32:54.443Z,23.97
2017-07-29T23:35:23.520Z,23.98
2017-07-29T23:37:52.542Z,23.97
2017-07-29T23:40:21.610Z,24.00
2017-07-29T23:42:50.671Z,24.00
2017-07-29T23:45:19.889Z,23.97
2017-07-29T23:47:48.937Z,23.97
2017-07-29T23:50:18.006Z,23.96
2017-07-29T23:52:47.046Z,23.92
2017-07-29T23:55:16.208Z,23.91
2017-07-29T23:57:45.273Z,23.94
